Rosebloom, Mississippi
Current Conditions -  °F | °C
As of 8:35 PM on Wednesday 17 Dec 2014 (Local Time) from KGNF Reporting Station
Overcast Overcast  
Wind Chill:   Ceiling: 10000
Heat Index:   Visibility: 10mi
Dew Point:   Wind: 0mph
Humidity: 76%   Direction: NA
Pressure: 30.24"   Gusts: NA
Location:  33.8947°N, 90.0323°W
Report Text: KGNF 180235Z AUTO 00000KT 10SM OVC100 06/02 A3024 RMK AO2
Loading
Personal Weather Stations






























Interactive Weather Map New forecast layout! Learn more

10-Day Weather Forecast

Advertisements
Track Severe Weather on mobile